Time;durP1;ratioP1;P1;durP2;ratioP2;P2;SDS_P1;SDS_P2;PMS_P1;PMS_P2;Temp;Humidity;BMP_temperature;BMP_pressure;BME280_temperature;BME280_humidity;BME280_pressure;Samples;Min_cycle;Max_cycle;Signal;HPM_P1;HPM_P2
2022/03/30 00:02:02;;;;;;;40.22;22.88;;;12.70;48.70;;;;;;5060104;28;20056;-43
2022/03/30 00:04:29;;;;;;;50.28;25.10;;;12.70;48.70;;;;;;5058328;28;20060;-43
2022/03/30 00:06:57;;;;;;;42.03;25.95;;;12.70;48.90;;;;;;5063599;28;20063;-45
2022/03/30 00:09:24;;;;;;;35.72;22.83;;;12.70;49.20;;;;;;5062184;28;20049;-44
2022/03/30 00:11:53;;;;;;;46.40;24.67;;;12.70;49.20;;;;;;5063584;28;20052;-43
2022/03/30 00:14:21;;;;;;;50.55;27.17;;;12.70;49.40;;;;;;5060034;28;20044;-44
2022/03/30 00:16:49;;;;;;;45.47;25.40;;;12.70;49.50;;;;;;5062888;28;20411;-44
2022/03/30 00:19:17;;;;;;;36.78;22.88;;;12.70;49.50;;;;;;5063658;28;20053;-43
2022/03/30 00:21:45;;;;;;;37.92;22.83;;;12.60;49.50;;;;;;5063270;28;20052;-43
2022/03/30 00:24:12;;;;;;;41.17;23.70;;;12.60;49.60;;;;;;5061103;28;20063;-48
2022/03/30 00:26:40;;;;;;;41.53;23.60;;;12.60;49.90;;;;;;5063437;28;20055;-44
2022/03/30 00:29:09;;;;;;;35.20;21.25;;;12.60;49.90;;;;;;5062554;28;20052;-43
2022/03/30 00:31:36;;;;;;;33.92;20.30;;;12.70;50.00;;;;;;5062908;28;20056;-45
2022/03/30 00:34:04;;;;;;;35.97;21.25;;;12.70;50.00;;;;;;5059674;28;20500;-43
2022/03/30 00:36:31;;;;;;;36.40;22.10;;;12.70;49.80;;;;;;5021890;28;1153799;-44
2022/03/30 00:38:59;;;;;;;35.45;21.17;;;12.70;49.80;;;;;;5064539;28;20055;-46
2022/03/30 00:41:28;;;;;;;36.00;21.88;;;12.80;49.80;;;;;;5065657;28;20056;-43
2022/03/30 00:43:56;;;;;;;35.55;21.25;;;12.80;49.90;;;;;;5061752;28;20087;-44
2022/03/30 00:46:25;;;;;;;38.83;22.60;;;12.80;49.90;;;;;;5064613;28;20075;-44
2022/03/30 00:48:52;;;;;;;38.90;23.58;;;12.80;50.10;;;;;;5063687;28;20056;-43
2022/03/30 00:51:20;;;;;;;38.92;22.73;;;12.80;50.20;;;;;;5062408;28;20064;-43
2022/03/30 00:53:47;;;;;;;34.15;20.67;;;12.80;50.20;;;;;;5060076;28;20060;-48
2022/03/30 00:56:15;;;;;;;37.83;21.27;;;12.80;50.30;;;;;;5063759;28;20053;-47
2022/03/30 00:58:43;;;;;;;42.85;24.60;;;12.80;50.30;;;;;;5062741;28;20056;-45
2022/03/30 01:01:11;;;;;;;36.60;22.75;;;12.90;50.60;;;;;;5064299;28;20055;-43
2022/03/30 01:03:40;;;;;;;36.85;21.20;;;12.90;50.60;;;;;;5062028;28;20075;-43
2022/03/30 01:06:08;;;;;;;36.40;22.60;;;12.90;50.60;;;;;;5063375;28;20063;-43
2022/03/30 01:08:35;;;;;;;34.30;21.10;;;12.90;50.70;;;;;;5062100;28;20044;-43
2022/03/30 01:11:03;;;;;;;32.88;19.58;;;12.90;50.70;;;;;;5064891;28;20056;-43
2022/03/30 01:13:30;;;;;;;37.80;22.02;;;12.90;50.80;;;;;;5064112;28;20059;-44
2022/03/30 01:15:58;;;;;;;38.60;21.08;;;12.90;50.70;;;;;;5060589;28;20057;-43
2022/03/30 01:18:26;;;;;;;35.15;21.80;;;12.90;50.60;;;;;;5062795;28;20515;-44
2022/03/30 01:20:55;;;;;;;38.45;23.05;;;12.90;50.60;;;;;;5064874;28;20423;-43
2022/03/30 01:23:22;;;;;;;35.03;21.35;;;12.90;50.80;;;;;;5061560;28;20048;-45
2022/03/30 01:25:50;;;;;;;31.92;20.75;;;12.90;50.80;;;;;;5061083;28;20056;-43
2022/03/30 01:28:17;;;;;;;32.67;20.42;;;12.90;50.90;;;;;;5061743;28;20514;-43
2022/03/30 01:33:32;;;;;;;35.08;21.30;;;12.90;51.10;;;;;;5069353;28;20052;-43
2022/03/30 01:36:01;;;;;;;31.92;20.45;;;12.90;51.00;;;;;;5041338;28;20063;-44
2022/03/30 01:38:28;;;;;;;40.85;23.30;;;12.90;51.00;;;;;;5054922;28;20048;-43
2022/03/30 01:40:55;;;;;;;39.97;23.60;;;12.90;51.20;;;;;;5064410;28;20063;-43
2022/03/30 01:43:23;;;;;;;37.90;22.73;;;12.90;51.70;;;;;;5062457;28;20044;-43
2022/03/30 01:45:50;;;;;;;43.15;23.63;;;12.80;51.70;;;;;;5060590;28;20083;-43
2022/03/30 01:48:18;;;;;;;38.65;23.67;;;12.80;51.90;;;;;;5060497;28;20059;-43
2022/03/30 01:50:45;;;;;;;43.03;25.02;;;12.80;52.10;;;;;;5064667;28;20094;-44
2022/03/30 01:53:15;;;;;;;34.42;20.65;;;12.70;52.30;;;;;;5062027;28;20060;-43
2022/03/30 01:55:42;;;;;;;36.40;20.98;;;12.70;52.40;;;;;;5060043;28;20056;-45
2022/03/30 01:58:09;;;;;;;48.97;27.02;;;12.60;52.40;;;;;;5060759;28;20052;-43
2022/03/30 02:00:37;;;;;;;41.65;23.30;;;12.60;52.60;;;;;;5063366;28;20052;-43
2022/03/30 02:03:05;;;;;;;35.20;21.48;;;12.60;52.70;;;;;;5063277;28;20385;-43
2022/03/30 02:05:32;;;;;;;45.35;26.15;;;12.60;52.60;;;;;;5059817;28;20048;-43
2022/03/30 02:08:00;;;;;;;40.72;23.77;;;12.60;52.80;;;;;;5060370;28;20395;-44
2022/03/30 02:10:29;;;;;;;40.85;23.17;;;12.60;52.90;;;;;;5063125;28;20397;-43
2022/03/30 02:12:58;;;;;;;39.92;23.70;;;12.50;53.00;;;;;;5062937;28;20063;-43
2022/03/30 02:15:25;;;;;;;41.28;22.00;;;12.50;53.00;;;;;;5059580;28;20064;-44
2022/03/30 02:17:53;;;;;;;36.55;23.63;;;12.50;53.10;;;;;;5062447;28;20063;-44
2022/03/30 02:20:20;;;;;;;43.25;25.58;;;12.50;53.10;;;;;;5064386;28;20056;-45
2022/03/30 02:22:48;;;;;;;38.25;23.10;;;12.50;53.10;;;;;;5061293;28;20405;-46
2022/03/30 02:25:15;;;;;;;37.78;22.35;;;12.50;53.10;;;;;;5057085;28;20059;-44
2022/03/30 02:27:44;;;;;;;40.05;22.27;;;12.50;53.10;;;;;;5061234;28;21088;-43
2022/03/30 02:30:12;;;;;;;34.08;21.70;;;12.50;53.20;;;;;;5061103;28;20048;-44
2022/03/30 02:32:40;;;;;;;37.70;22.73;;;12.50;53.20;;;;;;5061489;28;20496;-43
2022/03/30 02:35:09;;;;;;;40.83;23.85;;;12.50;53.20;;;;;;5059721;28;20063;-46
2022/03/30 02:37:36;;;;;;;34.25;22.08;;;12.50;53.30;;;;;;5060237;28;20523;-43
2022/03/30 02:40:05;;;;;;;40.17;22.95;;;12.50;53.30;;;;;;5062004;28;20052;-44
2022/03/30 02:42:32;;;;;;;38.22;23.23;;;12.50;53.40;;;;;;5061561;28;20079;-43
2022/03/30 02:45:01;;;;;;;37.42;22.95;;;12.50;53.40;;;;;;5061254;28;20411;-43
2022/03/30 02:50:14;;;;;;;40.80;24.30;;;12.40;53.30;;;;;;5068217;28;20059;-43
2022/03/30 02:52:41;;;;;;;44.80;26.38;;;12.40;53.30;;;;;;5061983;28;20052;-43
2022/03/30 02:55:09;;;;;;;44.63;25.48;;;12.40;53.30;;;;;;5059983;28;20060;-43
2022/03/30 02:57:39;;;;;;;42.58;24.55;;;12.40;53.30;;;;;;5060741;28;20060;-45
2022/03/30 03:00:10;;;;;;;37.83;23.20;;;12.40;53.20;;;;;;5061375;28;20048;-45
2022/03/30 03:02:37;;;;;;;37.83;22.75;;;12.40;53.30;;;;;;5061742;28;20064;-47
2022/03/30 03:05:05;;;;;;;38.67;23.27;;;12.40;53.20;;;;;;5059254;28;20518;-44
2022/03/30 03:07:33;;;;;;;50.35;26.65;;;12.30;53.30;;;;;;5059417;28;20052;-43
2022/03/30 03:10:01;;;;;;;47.88;26.08;;;12.30;53.50;;;;;;5062098;28;20071;-43
2022/03/30 03:12:28;;;;;;;42.90;25.45;;;12.30;53.60;;;;;;5063385;28;20503;-43
2022/03/30 03:14:56;;;;;;;38.80;23.73;;;12.30;53.70;;;;;;5057115;28;20052;-44
2022/03/30 03:17:24;;;;;;;50.15;28.13;;;12.20;53.70;;;;;;5061584;28;20057;-44
2022/03/30 03:19:52;;;;;;;47.17;27.17;;;12.30;54.00;;;;;;5062267;28;20071;-43
2022/03/30 03:22:19;;;;;;;41.60;25.25;;;12.20;54.10;;;;;;5060293;28;20546;-43
2022/03/30 03:24:47;;;;;;;43.53;25.95;;;12.20;54.10;;;;;;5060129;28;20057;-43
2022/03/30 03:27:14;;;;;;;46.58;26.23;;;12.20;54.10;;;;;;5061545;28;20063;-43
2022/03/30 03:29:42;;;;;;;47.78;24.58;;;12.20;54.10;;;;;;5060314;28;20055;-45
2022/03/30 03:32:10;;;;;;;41.63;24.90;;;12.20;54.10;;;;;;5060263;28;20059;-46
2022/03/30 03:34:38;;;;;;;50.88;26.77;;;12.20;54.10;;;;;;5057507;28;20052;-43
2022/03/30 03:37:06;;;;;;;45.47;26.83;;;12.20;54.20;;;;;;5060445;28;20071;-43
2022/03/30 03:39:34;;;;;;;43.35;25.80;;;12.20;53.90;;;;;;5060695;28;20119;-44
2022/03/30 03:42:01;;;;;;;46.42;27.00;;;12.20;53.80;;;;;;5061396;28;20498;-43
2022/03/30 03:44:28;;;;;;;47.55;26.92;;;12.10;53.80;;;;;;5059620;28;20041;-43
2022/03/30 03:46:56;;;;;;;45.53;25.75;;;12.10;53.90;;;;;;5061211;28;20534;-43
2022/03/30 03:49:23;;;;;;;47.08;27.60;;;12.10;53.80;;;;;;5058932;28;20435;-43
2022/03/30 03:51:52;;;;;;;44.80;25.95;;;12.10;53.90;;;;;;5060582;28;20053;-43
2022/03/30 03:54:20;;;;;;;41.25;25.55;;;12.10;53.90;;;;;;5057154;28;20040;-44
2022/03/30 03:56:47;;;;;;;42.40;25.60;;;12.10;53.70;;;;;;5052867;28;20056;-43
2022/03/30 03:59:15;;;;;;;43.25;24.75;;;12.00;53.60;;;;;;5058583;28;20053;-43
2022/03/30 04:01:42;;;;;;;45.83;25.92;;;12.00;53.70;;;;;;5058892;28;20552;-44
2022/03/30 04:04:10;;;;;;;42.03;24.73;;;12.00;53.70;;;;;;5060637;28;20052;-43
2022/03/30 04:06:37;;;;;;;45.17;24.75;;;12.00;53.70;;;;;;5059583;28;20499;-44
2022/03/30 04:09:06;;;;;;;44.60;24.45;;;12.00;53.70;;;;;;5058075;28;20055;-47
2022/03/30 04:11:34;;;;;;;46.67;27.00;;;12.00;53.80;;;;;;5058305;28;20052;-43
2022/03/30 04:14:01;;;;;;;48.38;26.85;;;12.00;53.80;;;;;;5059666;28;20496;-44
2022/03/30 04:16:29;;;;;;;50.03;27.70;;;12.00;53.90;;;;;;5053861;28;20061;-44
2022/03/30 04:18:56;;;;;;;47.58;26.48;;;12.00;53.90;;;;;;5060446;28;20057;-43
2022/03/30 04:21:24;;;;;;;43.70;26.73;;;11.90;53.70;;;;;;5061154;28;20423;-44
2022/03/30 04:23:51;;;;;;;43.17;24.77;;;11.90;53.70;;;;;;5057269;28;20056;-47
2022/03/30 04:26:20;;;;;;;42.25;25.35;;;11.90;53.70;;;;;;5061807;28;20052;-44
2022/03/30 04:28:47;;;;;;;44.83;24.77;;;11.80;53.70;;;;;;5060714;28;20083;-44
2022/03/30 04:31:15;;;;;;;42.35;24.67;;;11.80;53.60;;;;;;5058743;28;20381;-44
2022/03/30 04:33:42;;;;;;;44.40;25.55;;;11.80;53.70;;;;;;5059602;28;20135;-44
2022/03/30 04:36:11;;;;;;;44.05;26.25;;;11.80;53.70;;;;;;5059422;28;20056;-44
2022/03/30 04:38:39;;;;;;;45.38;26.45;;;11.80;53.80;;;;;;5060114;28;20059;-43
2022/03/30 04:41:06;;;;;;;65.47;31.60;;;11.80;53.90;;;;;;5062343;28;20075;-43
2022/03/30 04:43:35;;;;;;;50.75;29.50;;;11.70;54.10;;;;;;5058699;28;20061;-43
2022/03/30 04:46:02;;;;;;;44.47;27.13;;;11.70;54.30;;;;;;5059713;28;20060;-43
2022/03/30 04:48:30;;;;;;;47.75;27.80;;;11.70;54.30;;;;;;5061406;28;20491;-43
2022/03/30 04:50:57;;;;;;;45.95;26.45;;;11.70;54.30;;;;;;5061903;28;20064;-43
2022/03/30 04:53:25;;;;;;;45.75;25.95;;;11.70;54.30;;;;;;5063046;28;20059;-44
2022/03/30 04:55:52;;;;;;;40.83;25.23;;;11.70;54.40;;;;;;5062965;28;20067;-43
2022/03/30 04:58:20;;;;;;;42.60;24.88;;;11.70;54.40;;;;;;5048887;28;20055;-43
2022/03/30 05:00:49;;;;;;;40.80;25.70;;;11.70;54.40;;;;;;5042913;28;20057;-45
2022/03/30 05:03:17;;;;;;;45.42;26.48;;;11.60;54.40;;;;;;5042642;28;20516;-43
2022/03/30 05:05:44;;;;;;;45.40;25.63;;;11.70;54.50;;;;;;5039834;28;20071;-43
2022/03/30 05:08:12;;;;;;;42.17;25.77;;;11.70;54.50;;;;;;5040755;28;20068;-49
2022/03/30 05:10:39;;;;;;;44.67;25.73;;;11.60;54.50;;;;;;5045431;28;20102;-46
2022/03/30 05:13:07;;;;;;;44.75;25.35;;;11.60;54.50;;;;;;5044037;28;20049;-43
2022/03/30 05:15:34;;;;;;;42.33;24.58;;;11.60;54.50;;;;;;5041228;28;20047;-44
2022/03/30 05:18:04;;;;;;;43.75;26.27;;;11.60;54.50;;;;;;5043271;28;20061;-43
2022/03/30 05:20:31;;;;;;;46.25;26.73;;;11.60;54.60;;;;;;5041628;28;20044;-44
2022/03/30 05:22:59;;;;;;;57.45;29.70;;;11.60;54.60;;;;;;5040407;28;20049;-43
2022/03/30 05:25:27;;;;;;;43.08;26.42;;;11.60;54.70;;;;;;5039850;28;20610;-43
2022/03/30 05:27:54;;;;;;;39.20;24.25;;;11.60;54.80;;;;;;5043706;28;20444;-43
2022/03/30 05:30:22;;;;;;;46.25;26.63;;;11.60;54.80;;;;;;5042244;28;20053;-46
2022/03/30 05:32:50;;;;;;;54.47;29.10;;;11.60;54.80;;;;;;5043683;28;20049;-44
2022/03/30 05:35:19;;;;;;;47.10;27.92;;;11.60;54.90;;;;;;5041894;28;20044;-43
2022/03/30 05:37:47;;;;;;;43.42;26.60;;;11.50;54.90;;;;;;5019848;28;20049;-44
2022/03/30 05:40:16;;;;;;;50.50;26.70;;;11.60;55.00;;;;;;5023528;28;20053;-44
2022/03/30 05:42:44;;;;;;;42.75;25.83;;;11.50;55.00;;;;;;5021926;28;20057;-47
2022/03/30 05:45:12;;;;;;;59.55;31.25;;;11.50;55.00;;;;;;5020024;28;20046;-44
2022/03/30 05:47:39;;;;;;;55.10;29.17;;;11.50;55.10;;;;;;5021548;28;20497;-43
2022/03/30 05:50:09;;;;;;;51.70;29.20;;;11.50;55.20;;;;;;5023524;28;20572;-44
2022/03/30 05:52:38;;;;;;;46.53;26.08;;;11.50;55.20;;;;;;5011569;28;20061;-44
2022/03/30 05:55:08;;;;;;;44.03;25.42;;;11.50;55.30;;;;;;5016097;28;20056;-43
2022/03/30 05:57:36;;;;;;;39.85;24.13;;;11.50;55.30;;;;;;5013482;28;20060;-46
2022/03/30 06:00:05;;;;;;;57.13;29.75;;;11.50;55.20;;;;;;5018430;28;20057;-44
2022/03/30 06:02:33;;;;;;;55.55;30.15;;;11.50;55.30;;;;;;5016025;28;20413;-43
2022/03/30 06:05:03;;;;;;;52.13;30.70;;;11.40;55.40;;;;;;5019640;28;20061;-44
2022/03/30 06:07:31;;;;;;;59.50;32.75;;;11.40;55.50;;;;;;5022546;28;20061;-43
2022/03/30 06:10:00;;;;;;;67.47;31.17;;;11.30;55.60;;;;;;5022170;28;20053;-44
2022/03/30 06:12:28;;;;;;;57.45;30.08;;;11.30;55.80;;;;;;5023608;28;20493;-45
2022/03/30 06:14:55;;;;;;;58.50;32.28;;;11.20;55.90;;;;;;5018867;28;20165;-44
2022/03/30 06:17:23;;;;;;;57.10;31.38;;;11.10;56.10;;;;;;5021916;28;20057;-44
2022/03/30 06:19:53;;;;;;;62.22;31.88;;;11.10;56.20;;;;;;5022040;28;20054;-44
2022/03/30 06:22:21;;;;;;;54.47;30.85;;;11.00;56.30;;;;;;5015167;28;20065;-44
2022/03/30 06:24:49;;;;;;;59.83;34.00;;;11.00;56.40;;;;;;5020436;28;20054;-44
2022/03/30 06:27:18;;;;;;;64.07;33.95;;;11.00;56.60;;;;;;5021857;28;20413;-43
2022/03/30 06:29:46;;;;;;;61.75;33.38;;;10.90;56.70;;;;;;5021759;28;20057;-43
2022/03/30 06:32:13;;;;;;;66.88;34.85;;;10.80;56.80;;;;;;5020651;28;20049;-43
2022/03/30 06:34:41;;;;;;;65.07;34.83;;;10.70;57.00;;;;;;5017554;28;20053;-43
2022/03/30 06:37:09;;;;;;;60.20;33.45;;;10.70;57.40;;;;;;5032179;28;20056;-44
2022/03/30 06:39:37;;;;;;;60.75;33.00;;;10.70;57.70;;;;;;5040053;28;20057;-44
2022/03/30 06:42:05;;;;;;;62.75;34.05;;;10.60;57.80;;;;;;5037115;28;20057;-44
2022/03/30 06:44:34;;;;;;;57.00;32.47;;;10.60;58.00;;;;;;5037810;28;20040;-44
2022/03/30 06:47:01;;;;;;;68.13;34.10;;;10.60;58.10;;;;;;5037066;28;20049;-43
2022/03/30 06:49:29;;;;;;;69.40;34.78;;;10.60;58.30;;;;;;5041532;28;20057;-43
2022/03/30 06:51:57;;;;;;;66.20;34.08;;;10.60;58.40;;;;;;5040380;28;20057;-43
2022/03/30 06:54:25;;;;;;;68.68;34.75;;;10.60;58.50;;;;;;5039578;28;20413;-48
2022/03/30 06:56:52;;;;;;;65.10;35.20;;;10.60;58.60;;;;;;5041018;28;20052;-44
2022/03/30 06:59:20;;;;;;;67.55;35.13;;;10.60;58.90;;;;;;5039728;28;20052;-43
2022/03/30 07:01:49;;;;;;;61.83;34.95;;;10.60;58.90;;;;;;5038352;28;20057;-43
2022/03/30 07:04:17;;;;;;;61.72;33.28;;;10.60;58.80;;;;;;5039732;28;20056;-43
2022/03/30 07:12:11;;;;;;;58.13;31.10;;;10.70;58.60;;;;;;5048711;28;20060;-44
2022/03/30 07:14:38;;;;;;;54.53;30.23;;;10.60;58.60;;;;;;5037760;28;20053;-43
2022/03/30 07:17:09;;;;;;;63.83;34.47;;;10.70;58.70;;;;;;5042117;28;20489;-43
2022/03/30 07:19:38;;;;;;;65.22;33.72;;;10.80;58.70;;;;;;5041611;28;20420;-44
2022/03/30 07:22:06;;;;;;;50.35;29.02;;;10.80;58.50;;;;;;5037667;28;20453;-45
2022/03/30 07:24:33;;;;;;;66.22;33.95;;;10.90;58.40;;;;;;5037995;28;20049;-44
2022/03/30 07:27:01;;;;;;;57.72;32.45;;;10.90;58.30;;;;;;5041270;28;20064;-44
2022/03/30 07:29:29;;;;;;;64.28;34.85;;;11.00;58.30;;;;;;5035301;28;20488;-45
2022/03/30 07:31:56;;;;;;;65.70;33.50;;;11.00;58.40;;;;;;5035167;28;20072;-45
2022/03/30 07:34:26;;;;;;;64.53;33.55;;;11.00;58.40;;;;;;5036659;28;20048;-44
2022/03/30 07:36:53;;;;;;;70.25;35.13;;;11.00;58.50;;;;;;5037776;28;20103;-43
2022/03/30 07:39:21;;;;;;;64.60;34.88;;;11.10;58.50;;;;;;5040813;28;20053;-45
2022/03/30 07:41:49;;;;;;;67.53;35.20;;;11.10;58.60;;;;;;5037633;28;20059;-44
2022/03/30 07:44:16;;;;;;;54.25;31.55;;;11.10;58.80;;;;;;5038735;28;20049;-43
2022/03/30 07:46:46;;;;;;;67.07;35.10;;;11.10;58.70;;;;;;5036076;28;20409;-43
2022/03/30 07:49:14;;;;;;;50.30;29.42;;;11.10;58.60;;;;;;5038348;28;20056;-43
2022/03/30 07:51:46;;;;;;;58.55;31.80;;;11.20;58.60;;;;;;5037388;28;20059;-43
2022/03/30 07:54:13;;;;;;;50.05;28.98;;;11.20;58.20;;;;;;5034379;28;20064;-44
2022/03/30 07:56:41;;;;;;;51.08;28.50;;;11.30;58.10;;;;;;5040277;28;20064;-43
2022/03/30 07:59:08;;;;;;;53.85;30.40;;;11.30;57.90;;;;;;5037737;28;20056;-44
2022/03/30 08:01:36;;;;;;;54.17;29.75;;;11.40;57.70;;;;;;5039970;28;20057;-44
2022/03/30 08:04:04;;;;;;;58.65;29.30;;;11.40;57.50;;;;;;5036538;28;20060;-43
2022/03/30 08:06:31;;;;;;;50.63;29.00;;;11.50;57.70;;;;;;5039724;28;20049;-43
2022/03/30 08:09:02;;;;;;;44.22;25.58;;;11.50;57.60;;;;;;5040670;28;20409;-43
2022/03/30 08:11:29;;;;;;;49.45;28.45;;;11.60;57.50;;;;;;5041704;28;20053;-43
2022/03/30 08:13:57;;;;;;;52.53;30.60;;;11.80;57.50;;;;;;5037950;28;20048;-43
2022/03/30 08:16:28;;;;;;;57.58;31.40;;;11.80;57.00;;;;;;5036446;28;20060;-43
2022/03/30 08:18:56;;;;;;;53.58;31.05;;;11.90;56.40;;;;;;5039046;28;20064;-43
2022/03/30 08:24:10;;;;;;;50.83;27.73;;;12.00;56.40;;;;;;5045648;28;20504;-45
2022/03/30 08:26:39;;;;;;;46.58;26.67;;;12.10;56.50;;;;;;5043943;28;20316;-43
2022/03/30 08:29:07;;;;;;;43.58;25.52;;;12.20;56.50;;;;;;5044108;28;20049;-44
2022/03/30 08:31:35;;;;;;;54.42;29.55;;;12.20;56.50;;;;;;5039248;28;20053;-44
2022/03/30 08:34:03;;;;;;;53.55;29.92;;;12.30;56.10;;;;;;5043022;28;20053;-43
2022/03/30 08:36:31;;;;;;;54.17;28.60;;;12.40;55.50;;;;;;5042959;28;20053;-46
2022/03/30 08:38:59;;;;;;;49.88;27.05;;;12.40;54.50;;;;;;5044001;28;20059;-43
2022/03/30 08:41:29;;;;;;;53.05;29.33;;;12.30;54.60;;;;;;5042607;28;20064;-43
2022/03/30 08:43:56;;;;;;;44.83;25.17;;;12.40;55.00;;;;;;5040966;28;20057;-43
2022/03/30 08:46:24;;;;;;;45.80;26.65;;;12.40;55.20;;;;;;5043667;28;20052;-44
2022/03/30 08:48:51;;;;;;;47.40;26.70;;;12.30;54.00;;;;;;5041582;28;20052;-44
2022/03/30 08:51:21;;;;;;;44.67;25.85;;;12.30;53.70;;;;;;5040889;28;20068;-43
2022/03/30 08:53:50;;;;;;;45.35;25.98;;;12.30;53.90;;;;;;5037502;28;20407;-47
2022/03/30 08:56:17;;;;;;;50.38;26.38;;;12.30;53.90;;;;;;5041910;28;20045;-43
2022/03/30 08:58:46;;;;;;;50.28;26.15;;;12.30;53.70;;;;;;5045841;28;20057;-43
2022/03/30 09:01:14;;;;;;;47.88;27.05;;;12.30;53.40;;;;;;5041227;28;20049;-44
2022/03/30 09:03:56;;;;;;;53.58;28.50;;;12.30;53.20;;;;;;5042561;28;20057;-44
2022/03/30 09:06:34;;;;;;;44.13;24.15;;;12.20;53.30;;;;;;5041116;28;20049;-44
2022/03/30 09:09:02;;;;;;;46.55;25.85;;;12.30;53.50;;;;;;5044743;28;20057;-43
2022/03/30 09:11:31;;;;;;;45.63;25.08;;;12.30;53.50;;;;;;5044060;28;20500;-48
2022/03/30 09:14:03;;;;;;;51.78;26.80;;;12.30;53.10;;;;;;5039846;28;20053;-44
2022/03/30 09:16:39;;;;;;;48.00;26.65;;;12.30;52.70;;;;;;5042288;28;20091;-44
2022/03/30 09:19:08;;;;;;;49.97;27.02;;;12.30;52.70;;;;;;5039959;28;20078;-43
2022/03/30 09:21:43;;;;;;;53.88;27.80;;;12.20;53.40;;;;;;5042992;28;20057;-44
2022/03/30 09:24:11;;;;;;;51.38;26.10;;;12.20;53.30;;;;;;5043908;28;20052;-44
2022/03/30 09:26:39;;;;;;;56.00;26.55;;;12.20;53.50;;;;;;5026808;28;20059;-43
2022/03/30 09:29:08;;;;;;;48.92;25.80;;;12.20;53.70;;;;;;5043988;28;20063;-44
2022/03/30 09:31:38;;;;;;;46.45;26.95;;;12.20;53.50;;;;;;5039263;28;20519;-44
2022/03/30 09:34:09;;;;;;;46.45;26.52;;;12.20;52.70;;;;;;5038125;28;20620;-43
2022/03/30 09:36:38;;;;;;;46.15;24.90;;;12.20;52.50;;;;;;5038343;28;20061;-45
2022/03/30 09:39:07;;;;;;;49.45;26.25;;;12.10;52.50;;;;;;5041078;28;20505;-45
2022/03/30 09:41:56;;;;;;;43.38;23.95;;;12.10;52.10;;;;;;5042212;28;20068;-47
2022/03/30 09:44:25;;;;;;;40.65;22.23;;;12.10;52.30;;;;;;5036173;28;20056;-44
2022/03/30 09:46:55;;;;;;;39.67;22.73;;;12.10;52.00;;;;;;5036482;28;20060;-44
2022/03/30 09:49:33;;;;;;;45.60;24.35;;;12.10;52.00;;;;;;5041905;28;20045;-44
2022/03/30 09:52:01;;;;;;;41.15;24.80;;;12.20;51.80;;;;;;5042188;28;20057;-43
2022/03/30 09:54:39;;;;;;;41.38;24.15;;;12.20;51.60;;;;;;5040764;28;20064;-43
2022/03/30 09:57:15;;;;;;;47.75;24.08;;;12.20;51.40;;;;;;5043220;28;20053;-44
2022/03/30 10:00:18;;;;;;;41.67;23.00;;;12.30;52.20;;;;;;5043615;28;20057;-46
2022/03/30 10:02:47;;;;;;;37.63;21.90;;;12.30;50.10;;;;;;4977433;28;20430;-44
2022/03/30 10:05:18;;;;;;;40.38;20.92;;;12.40;50.40;;;;;;4976905;28;20431;-49
2022/03/30 10:07:46;;;;;;;38.35;20.20;;;12.50;50.70;;;;;;5007375;28;20076;-44
2022/03/30 10:10:14;;;;;;;45.45;21.42;;;12.50;49.40;;;;;;5040347;28;20053;-43
2022/03/30 10:12:42;;;;;;;41.08;20.23;;;12.50;48.10;;;;;;5041413;28;20064;-49
2022/03/30 10:15:13;;;;;;;37.75;18.55;;;12.50;47.90;;;;;;5037134;28;20045;-44
2022/03/30 10:17:42;;;;;;;37.63;19.80;;;12.50;48.20;;;;;;5042815;28;20045;-43
2022/03/30 10:20:10;;;;;;;36.67;19.05;;;12.60;48.10;;;;;;5044149;28;20416;-45
2022/03/30 10:23:01;;;;;;;34.92;20.92;;;12.80;49.20;;;;;;5040455;28;20060;-43
2022/03/30 10:25:56;;;;;;;41.08;22.50;;;12.80;49.10;;;;;;5042393;28;20081;-43
2022/03/30 10:28:25;;;;;;;38.53;19.50;;;12.90;48.60;;;;;;5043260;28;20048;-43
2022/03/30 10:30:55;;;;;;;31.80;19.05;;;13.00;49.20;;;;;;5041990;28;20496;-44
2022/03/30 10:33:36;;;;;;;33.92;20.67;;;13.10;49.30;;;;;;5040209;28;20056;-46
2022/03/30 10:36:22;;;;;;;39.05;21.52;;;13.20;48.80;;;;;;5042433;28;20071;-43
2022/03/30 10:39:24;;;;;;;41.38;22.83;;;13.20;48.70;;;;;;5042054;28;20424;-45
2022/03/30 10:41:53;;;;;;;43.30;22.80;;;13.30;48.40;;;;;;5043488;28;20057;-44
2022/03/30 10:44:50;;;;;;;38.20;20.90;;;13.30;48.40;;;;;;5041327;28;20405;-47
2022/03/30 10:47:20;;;;;;;38.78;21.90;;;13.40;48.20;;;;;;5007570;28;20064;-43
2022/03/30 10:49:51;;;;;;;41.75;23.05;;;13.40;48.50;;;;;;5042755;28;20053;-43
2022/03/30 10:52:37;;;;;;;46.47;23.33;;;13.50;48.70;;;;;;5041996;28;20416;-44
2022/03/30 10:55:30;;;;;;;40.63;24.27;;;13.50;47.20;;;;;;5041225;28;20052;-44
2022/03/30 10:58:01;;;;;;;45.95;23.02;;;13.60;47.10;;;;;;5032072;28;20049;-43
2022/03/30 11:00:31;;;;;;;42.67;22.73;;;13.60;47.50;;;;;;5042303;28;20056;-44
2022/03/30 11:03:14;;;;;;;39.75;22.33;;;13.60;47.30;;;;;;5025126;28;20065;-44
2022/03/30 11:05:47;;;;;;;40.53;22.15;;;13.60;46.90;;;;;;5041765;28;20540;-43
2022/03/30 11:09:01;;;;;;;33.17;20.38;;;13.60;46.60;;;;;;5039806;28;20381;-43
2022/03/30 11:11:34;;;;;;;44.53;23.73;;;13.70;47.00;;;;;;4994383;28;20503;-44
2022/03/30 11:14:28;;;;;;;39.83;23.25;;;13.70;45.30;;;;;;5040492;28;20107;-43
2022/03/30 11:16:58;;;;;;;36.13;21.57;;;13.80;45.10;;;;;;5041559;28;20049;-44
2022/03/30 11:19:30;;;;;;;33.60;19.65;;;13.70;45.90;;;;;;5041982;28;20471;-45
2022/03/30 11:22:11;;;;;;;36.10;20.67;;;13.80;46.20;;;;;;5040955;28;20511;-44
2022/03/30 11:24:39;;;;;;;39.85;20.52;;;13.90;46.50;;;;;;5041313;28;20057;-43
2022/03/30 11:27:22;;;;;;;32.63;19.90;;;13.90;45.80;;;;;;5041737;28;20057;-43
2022/03/30 11:30:01;;;;;;;31.00;19.17;;;14.00;46.10;;;;;;5041906;28;20052;-47
2022/03/30 11:33:07;;;;;;;36.28;21.20;;;14.10;46.10;;;;;;5041908;28;20055;-44
2022/03/30 11:35:42;;;;;;;37.40;20.70;;;14.20;45.40;;;;;;5038657;28;20056;-43
2022/03/30 11:38:21;;;;;;;40.38;21.90;;;14.30;45.30;;;;;;5040923;28;20060;-44
2022/03/30 11:40:50;;;;;;;34.38;20.10;;;14.40;44.40;;;;;;5041731;28;20053;-46
2022/03/30 11:43:19;;;;;;;36.17;21.02;;;14.40;44.30;;;;;;5041430;28;20045;-44
2022/03/30 11:45:47;;;;;;;35.60;19.27;;;14.40;43.00;;;;;;5039691;28;20411;-43
2022/03/30 11:48:15;;;;;;;44.85;20.98;;;14.40;43.10;;;;;;5041418;28;20049;-44
2022/03/30 11:50:45;;;;;;;33.72;19.25;;;14.50;42.60;;;;;;5040823;28;20060;-49
2022/03/30 11:53:15;;;;;;;36.72;19.48;;;14.50;42.90;;;;;;5041336;28;20049;-47
2022/03/30 11:55:51;;;;;;;38.83;20.42;;;14.50;43.00;;;;;;5038462;28;20056;-44
2022/03/30 11:58:27;;;;;;;37.22;19.80;;;14.60;41.60;;;;;;5042053;28;20048;-44
2022/03/30 12:00:56;;;;;;;29.42;16.85;;;14.60;41.00;;;;;;5044136;28;20060;-43
2022/03/30 12:03:25;;;;;;;30.80;18.05;;;14.60;41.70;;;;;;5046083;28;20813;-44
2022/03/30 12:05:57;;;;;;;37.42;18.42;;;14.60;41.70;;;;;;5043408;28;20052;-44
2022/03/30 12:08:27;;;;;;;42.42;20.48;;;14.60;40.60;;;;;;5044781;28;20551;-43
2022/03/30 12:10:58;;;;;;;33.17;17.95;;;14.70;41.00;;;;;;5044352;28;20661;-44
2022/03/30 12:13:26;;;;;;;27.65;16.80;;;14.70;41.20;;;;;;5045032;28;20499;-44
2022/03/30 12:16:05;;;;;;;26.17;15.50;;;14.80;41.20;;;;;;5043719;28;20072;-43
2022/03/30 12:18:34;;;;;;;27.77;15.90;;;14.90;41.80;;;;;;5046053;28;20414;-43
2022/03/30 12:21:02;;;;;;;32.35;17.63;;;15.00;41.60;;;;;;5043272;28;20057;-46
2022/03/30 12:23:31;;;;;;;34.55;18.05;;;15.00;41.40;;;;;;5041767;28;20049;-45
2022/03/30 12:25:58;;;;;;;28.40;16.80;;;15.10;41.60;;;;;;5042809;28;20053;-43
2022/03/30 12:28:30;;;;;;;35.58;18.25;;;15.20;40.50;;;;;;5044805;28;20049;-44
2022/03/30 12:30:58;;;;;;;28.67;16.23;;;15.20;39.70;;;;;;5045484;28;20056;-44
2022/03/30 12:33:25;;;;;;;34.40;18.42;;;15.20;40.30;;;;;;5042948;28;20057;-43
2022/03/30 12:35:54;;;;;;;25.35;15.45;;;15.20;38.70;;;;;;5041402;28;20060;-45
2022/03/30 12:38:24;;;;;;;25.00;15.13;;;15.20;39.10;;;;;;5041625;28;20060;-45
2022/03/30 12:40:53;;;;;;;29.42;15.43;;;15.20;39.10;;;;;;5045348;28;20424;-46
2022/03/30 12:43:26;;;;;;;25.95;14.73;;;15.20;38.80;;;;;;5041185;28;20052;-45
2022/03/30 12:46:00;;;;;;;27.95;15.85;;;15.20;39.30;;;;;;5038165;28;20064;-43
2022/03/30 12:48:29;;;;;;;29.58;15.80;;;15.20;39.20;;;;;;5044244;28;20059;-43
2022/03/30 12:50:59;;;;;;;29.35;15.30;;;15.20;38.80;;;;;;5040795;28;20045;-43
2022/03/30 12:53:32;;;;;;;22.60;13.18;;;15.30;38.30;;;;;;5037104;28;20052;-44